Charles City, IA

5:36 AM CST on December 06, 2016 (GMT -0600)
Downtown Charles City | | Change Station

Elev 991 ft 43.07 °N, 92.67 °W | Updated 12 seconds ago

Light Snow
Light Snow
30.4 °F
Feels Like 27 °F
N
3.7
Wind Variable Wind from West

Today
High -- | Low -- °F
--% Chance of Precip.
Yesterday
High -- | Low -- °F
Precip. -- in
Pressure 29.79 in
Visibility 5.0 miles
Clouds Few 800 ft
Mostly Cloudy 1300 ft
Overcast 8500 ft
Windchill 27 °F
Dew Point 28 °F
Humidity 90%
Rainfall in
Snow Depth Not available.
7:28 AM 4:35 PM
Waxing Crescent, 41% visible
METAR KCCY 061135Z AUTO 28015G23KT 5SM -SN FEW008 BKN013 OVC085 M01/M01 A2979 RMK AO2
Pressure 29.79 in
Visibility 5.0 miles
Clouds Few 800 ft
Mostly Cloudy 1300 ft
Overcast 8500 ft
Windchill 27 °F
Dew Point 28 °F
Humidity 90%
Rainfall in
Snow Depth Not available.
7:28 AM 4:35 PM
Waxing Crescent, 41% visible
METAR KCCY 061135Z AUTO 28015G23KT 5SM -SN FEW008 BKN013 OVC085 M01/M01 A2979 RMK AO2

10-Day Weather Forecast

Almanac

Astronomy

Dec. 06, 2016 Rise Set
Actual Time
Civil Twilight
Nautical Twilight
Astronomical Twilight
Moon
Length of Visible Light
Length of Day
Tomorrow will be .
, % of the Moon is Illuminated

Today's Extremes

State Highs State Lows

Community

WunderPhotos

Upload Photos

1,955,935 photos uploaded!

WunderBlog® & News

Nearby

Air Quality

  Air Quality AQ Index Pollutant
Not available.

Snow Depth

Station Depth Elevation

Earthquake Activity

City Distance Mag. Time & Date
Minimum magnitude displayed is 2.5.

Coastal Water Temperatures

Place Temperature

Stations

Nearby Weather Stations

Station Location Temp. Windchill Dew Point Humidity Wind Precip. Elev Updated Type
                   

Watches & Warnings

There are currently no watches in effect.